Sumerduck, Virginia
Current Conditions -  °F | °C
As of 6:55 PM on Wednesday 22 Oct 2014 (Local Time) from KHWY Reporting Station
Clear Clear  
Wind Chill: 55°   Ceiling: Unl
Heat Index: 55°   Visibility: 10mi
Dew Point: 50°   Wind: 12mph
Humidity: 86%   Direction: 310°NW
Pressure: 29.96"   Gusts: NA
Location:  38.47°N, 77.71°W
Report Text: KHWY 222255Z AUTO 31010KT 10SM CLR 13/10 A2996 RMK AO2 LTG DSNT E T01250102
Loading
Personal Weather Stations






























Interactive Weather Map
Tropical Storm Tracking
New forecast layout! Learn more

10-Day Weather Forecast

Advertisements
Track Severe Weather on mobile